Drimmelen, Netherlands
Current Conditions -  °F | °C
As of 11:55 PM on Tuesday 25 Nov 2014 (Local Time) from EHGR Reporting Station
Clear Clear  
Wind Chill: 35°   Ceiling: Unl
Heat Index: 41°   Visibility: 6mi
Dew Point: 36°   Wind: 10mph
Humidity: 81%   Direction: 90°E
Pressure: 30.09"   Gusts: NA
Location:  51.71°N, 4.8°E
Report Text: EHGR 252255Z AUTO 09009KT 9999 NCD 05/02 Q1019 BLU
Loading
Personal Weather Stations






























Interactive Weather Map New forecast layout! Learn more

10-Day Weather Forecast

Advertisements
Track Severe Weather on mobile